Latest Weather Observations for Busselton Jetty

IDW60801

Issued at 11:04 pm WST Wednesday 8 July 2020 (issued every 10 minutes, with the page automatically refreshed every 10 minutes)

About weather observations | Map of weather stations | Latest weather observations for WA | Other Formats
Station Details ID: 009937 Name: BUSSELTON JETTY Lat: -33.63 Lon: 115.34 Height: 3.0 m
Data from the previous 72 hours. | See also: Recent months at Busselton Jetty
Date/Time
WST
Temp
°C
App
Temp
°C
Dew
Point
°C
Rel
Hum
%
Delta-T
°C
Wind Press
QNH
hPa
Press
MSL
hPa
Rain since
9am
mm
Dir  Spd
km/h
Gust
km/h
Spd
kts
Gust
kts
08/11:00pm - - - - - SSE 13 17 7 9 - - -
08/10:30pm - - - - - S 15 17 8 9 - - -
08/10:00pm - - - - - S 13 15 7 8 - - -
08/09:30pm - - - - - S 11 13 6 7 - - -
08/09:00pm - - - - - S 9 11 5 6 - - -
08/08:30pm - - - - - SSE 11 13 6 7 - - -
08/08:00pm - - - - - SE 11 13 6 7 - - -
08/07:30pm - - - - - SE 13 13 7 7 - - -
08/07:00pm - - - - - SSE 13 15 7 8 - - -
08/06:30pm - - - - - SSE 19 24 10 13 - - -
08/06:00pm - - - - - S 20 28 11 15 - - -
08/05:30pm - - - - - S 24 28 13 15 - - -
08/05:00pm - - - - - SSW 32 39 17 21 - - -
08/04:30pm - - - - - SSW 20 26 11 14 - - -
08/04:00pm - - - - - SSW 22 28 12 15 - - -
08/03:30pm - - - - - SSW 13 17 7 9 - - -
08/03:00pm - - - - - SSE 13 17 7 9 - - -
08/02:30pm - - - - - SSW 22 28 12 15 - - -
08/02:00pm - - - - - SSW 28 32 15 17 - - -
08/01:30pm - - - - - SSW 17 26 9 14 - - -
08/01:00pm - - - - - S 11 19 6 10 - - -
08/12:30pm - - - - - S 13 19 7 10 - - -
08/12:00pm - - - - - SSW 20 26 11 14 - - -
08/11:30am - - - - - SSW 13 20 7 11 - - -
08/11:00am - - - - - W 4 9 2 5 - - -
08/10:30am - - - - - SSE 2 13 1 7 - - -
08/10:00am - - - - - SE 6 7 3 4 - - -
08/09:30am - - - - - S 7 11 4 6 - - -
08/09:00am - - - - - SW 7 9 4 5 - - -
08/08:30am - - - - - SSW 2 7 1 4 - - -
08/08:00am - - - - - SSE 13 19 7 10 - - -
08/07:30am - - - - - E 7 9 4 5 - - -
08/07:00am - - - - - ESE 9 9 5 5 - - -
08/06:30am - - - - - ESE 6 9 3 5 - - -
08/06:00am - - - - - SSW 11 19 6 10 - - -
08/05:30am - - - - - WSW 11 13 6 7 - - -
08/05:00am - - - - - SSW 11 13 6 7 - - -
08/04:30am - - - - - W 15 17 8 9 - - -
08/04:00am - - - - - WSW 11 15 6 8 - - -
08/03:30am - - - - - SW 11 15 6 8 - - -
08/03:00am - - - - - SSE 7 9 4 5 - - -
08/02:30am - - - - - SSE 13 19 7 10 - - -
08/02:00am - - - - - SW 17 24 9 13 - - -
08/01:30am - - - - - WSW 19 24 10 13 - - -
08/01:12am - - - - - WSW 28 48 15 26 - - -
08/01:00am - - - - - WSW 28 37 15 20 - - -
08/12:30am - - - - - WSW 22 30 12 16 - - -
08/12:00am - - - - - SW 19 32 10 17 - - -
 
Date/Time
WST
Temp
°C
App
Temp
°C
Dew
Point
°C
Rel
Hum
%
Delta-T
°C
Wind Press
QNH
hPa
Press
MSL
hPa
Rain since
9am
mm
Dir  Spd
km/h
Gust
km/h
Spd
kts
Gust
kts
07/11:30pm - - - - - WSW 9 11 5 6 - - -
07/11:00pm - - - - - SW 13 17 7 9 - - -
07/10:30pm - - - - - WSW 17 24 9 13 - - -
07/10:00pm - - - - - WSW 17 19 9 10 - - -
07/09:30pm - - - - - WSW 17 19 9 10 - - -
07/09:00pm - - - - - WSW 17 22 9 12 - - -
07/08:30pm - - - - - SW 15 19 8 10 - - -
07/08:00pm - - - - - SW 17 20 9 11 - - -
07/07:30pm - - - - - SW 19 22 10 12 - - -
07/07:00pm - - - - - SW 20 26 11 14 - - -
07/06:30pm - - - - - W 26 32 14 17 - - -
07/06:00pm - - - - - WSW 32 43 17 23 - - -
07/05:30pm - - - - - W 39 52 21 28 - - -
07/05:16pm - - - - - W 37 50 20 27 - - -
07/05:00pm - - - - - WNW 33 39 18 21 - - -
07/04:30pm - - - - - WNW 28 32 15 17 - - -
07/04:00pm - - - - - WNW 32 35 17 19 - - -
07/03:30pm - - - - - WNW 28 33 15 18 - - -
07/03:00pm - - - - - WNW 24 30 13 16 - - -
07/02:30pm - - - - - NW 30 39 16 21 - - -
07/02:04pm - - - - - WNW 32 50 17 27 - - -
07/02:00pm - - - - - WNW 30 33 16 18 - - -
07/01:30pm - - - - - W 28 33 15 18 - - -
07/01:00pm - - - - - WNW 32 35 17 19 - - -
07/12:30pm - - - - - W 24 28 13 15 - - -
07/12:00pm - - - - - W 22 28 12 15 - - -
07/11:30am - - - - - WNW 24 30 13 16 - - -
07/11:00am - - - - - W 24 28 13 15 - - -
07/10:30am - - - - - W 26 33 14 18 - - -
07/10:00am - - - - - WSW 20 26 11 14 - - -
07/09:30am - - - - - WSW 17 20 9 11 - - -
07/09:20am - - - - - W 30 48 16 26 - - -
07/09:00am - - - - - W 28 37 15 20 - - -
07/08:30am - - - - - WNW 24 28 13 15 - - -
07/08:00am - - - - - WNW 24 30 13 16 - - -
07/07:30am - - - - - W 24 33 13 18 - - -
07/07:00am - - - - - WSW 13 15 7 8 - - -
07/06:30am - - - - - W 26 32 14 17 - - -
07/06:00am - - - - - W 32 39 17 21 - - -
07/05:30am - - - - - W 28 33 15 18 - - -
07/05:00am - - - - - WSW 33 39 18 21 - - -
07/04:30am - - - - - W 32 39 17 21 - - -
07/04:00am - - - - - WSW 43 52 23 28 - - -
07/03:30am - - - - - W 33 39 18 21 - - -
07/03:00am - - - - - W 35 39 19 21 - - -
07/02:30am - - - - - WSW 37 46 20 25 - - -
07/02:00am - - - - - W 43 50 23 27 - - -
07/01:30am - - - - - W 43 52 23 28 - - -
07/01:00am - - - - - W 46 57 25 31 - - -
07/12:30am - - - - - W 44 52 24 28 - - -
07/12:00am - - - - - W 46 59 25 32 - - -
 
Date/Time
WST
Temp
°C
App
Temp
°C
Dew
Point
°C
Rel
Hum
%
Delta-T
°C
Wind Press
QNH
hPa
Press
MSL
hPa
Rain since
9am
mm
Dir  Spd
km/h
Gust
km/h
Spd
kts
Gust
kts
06/11:30pm - - - - - W 44 57 24 31 - - -
06/11:00pm - - - - - W 50 61 27 33 - - -
06/10:30pm - - - - - W 46 54 25 29 - - -
06/10:00pm - - - - - W 44 54 24 29 - - -
06/09:30pm - - - - - W 46 57 25 31 - - -
06/09:00pm - - - - - W 41 52 22 28 - - -
06/08:30pm - - - - - W 44 56 24 30 - - -
06/08:00pm - - - - - WNW 44 54 24 29 - - -
06/07:30pm - - - - - WNW 48 63 26 34 - - -
06/07:00pm - - - - - WNW 50 57 27 31 - - -
06/06:30pm - - - - - WNW 54 65 29 35 - - -
06/06:00pm - - - - - WNW 54 69 29 37 - - -
06/05:45pm - - - - - WNW 46 65 25 35 - - -
06/05:30pm - - - - - WNW 57 67 31 36 - - -
06/05:00pm - - - - - WNW 48 61 26 33 - - -
06/04:30pm - - - - - W 54 63 29 34 - - -
06/04:16pm - - - - - WNW 52 72 28 39 - - -
06/04:00pm - - - - - W 57 74 31 40 - - -
06/03:52pm - - - - - WNW 56 74 30 40 - - -
06/03:30pm - - - - - WNW 54 70 29 38 - - -
06/03:00pm - - - - - WNW 54 70 29 38 - - -
06/02:30pm - - - - - WNW 50 59 27 32 - - -
06/02:00pm - - - - - WNW 44 56 24 30 - - -
06/01:30pm - - - - - WNW 50 59 27 32 - - -
06/01:00pm - - - - - WNW 46 57 25 31 - - -
06/12:30pm - - - - - WNW 46 56 25 30 - - -
06/12:00pm - - - - - WNW 43 54 23 29 - - -
06/11:56am - - - - - WNW 37 54 20 29 - - -
06/11:49am - - - - - WNW 35 48 19 26 - - -
06/11:30am - - - - - NNW 44 52 24 28 - - -
06/11:00am - - - - - NW 54 65 29 35 - - -
06/10:30am - - - - - NW 56 70 30 38 - - -
06/10:00am - - - - - NW 61 72 33 39 - - -
06/09:38am - - - - - NW 61 80 33 43 - - -
06/09:30am - - - - - NW 63 80 34 43 - - -
06/09:00am - - - - - NW 63 83 34 45 - - -
06/08:36am - - - - - NW 59 78 32 42 - - -
06/08:30am - - - - - NW 52 63 28 34 - - -
06/08:23am - - - - - NW 52 70 28 38 - - -
06/08:16am - - - - - NW 56 70 30 38 - - -
06/08:00am - - - - - NNW 48 61 26 33 - - -
06/07:53am - - - - - NNW 52 70 28 38 - - -
06/07:30am - - - - - NNW 50 65 27 35 - - -
06/07:00am - - - - - NNW 44 56 24 30 - - -
06/06:30am - - - - - NNW 37 44 20 24 - - -
06/06:14am - - - - - NNW 43 67 23 36 - - -
06/06:00am - - - - - NNW 37 48 20 26 - - -
06/05:30am - - - - - NW 37 48 20 26 - - -
06/05:00am - - - - - NW 37 43 20 23 - - -
06/04:30am - - - - - NNW 33 46 18 25 - - -
06/04:00am - - - - - NNW 37 48 20 26 - - -
06/03:30am - - - - - NNW 35 48 19 26 - - -
06/03:29am - - - - - NNW 33 48 18 26 - - -
06/03:00am - - - - - NNW 30 35 16 19 - - -
06/02:30am - - - - - NNW 28 35 15 19 - - -
06/02:00am - - - - - N 28 39 15 21 - - -
06/01:30am - - - - - NNW 41 50 22 27 - - -
06/01:00am - - - - - NNW 46 59 25 32 - - -
06/12:30am - - - - - N 41 54 22 29 - - -
06/12:00am - - - - - N 43 50 23 27 - - -
 
Date/Time
WST
Temp
°C
App
Temp
°C
Dew
Point
°C
Rel
Hum
%
Delta-T
°C
Wind Press
QNH
hPa
Press
MSL
hPa
Rain since
9am
mm
Dir  Spd
km/h
Gust
km/h
Spd
kts
Gust
kts
05/11:30pm - - - - - NNE 39 50 21 27 - - -

Other formats

Comma delimited format used in spreadsheet applications
http://www.bom.gov.au/fwo/IDW60801/IDW60801.95602.axf

JavaScript Object Notation format (JSON) in row-major order
http://www.bom.gov.au/fwo/IDW60801/IDW60801.95602.json

Data quality

Most of these data are generated automatically and are frequently updated. Quality checks on data are not normally performed. It is possible for incorrect values to appear. Refer to information at About Latest Weather Observations and please check the disclaimer before using these data.